Time;durP1;ratioP1;P1;durP2;ratioP2;P2;SDS_P1;SDS_P2;PMS_P1;PMS_P2;Temp;Humidity;BMP_temperature;BMP_pressure;BME280_temperature;BME280_humidity;BME280_pressure;Samples;Min_cycle;Max_cycle;Signal;HPM_P1;HPM_P2
2021/09/07 00:00:42;;;;;;;;;11.25;10.00;;;;;26.54;35.41;101460.44;5080217;28;45465;-83
2021/09/07 00:03:08;;;;;;;;;11.75;10.00;;;;;26.52;35.83;101465.16;5077561;28;45714;-80
2021/09/07 00:05:33;;;;;;;;;9.75;9.75;;;;;26.48;35.24;101458.50;5076914;28;45871;-84
2021/09/07 00:07:59;;;;;;;;;9.00;8.25;;;;;26.42;35.44;101451.22;5078962;28;46818;-81
2021/09/07 00:10:24;;;;;;;;;13.50;10.25;;;;;26.46;35.49;101459.72;5083520;28;45622;-80
2021/09/07 00:12:50;;;;;;;;;12.75;11.00;;;;;26.42;35.34;101456.59;5082555;28;45583;-85
2021/09/07 00:15:17;;;;;;;;;10.00;9.50;;;;;26.41;35.72;101456.78;5061330;28;45921;-80
2021/09/07 00:17:43;;;;;;;;;11.25;9.00;;;;;26.38;35.54;101460.69;5075436;28;46444;-82
2021/09/07 00:20:09;;;;;;;;;8.75;8.00;;;;;26.36;35.44;101456.53;5075073;28;45847;-80
2021/09/07 00:22:36;;;;;;;;;9.50;9.50;;;;;26.35;35.83;101457.53;5075570;28;45834;-80
2021/09/07 00:25:03;;;;;;;;;11.25;10.25;;;;;26.31;35.20;101455.25;5075374;28;45665;-84
2021/09/07 00:27:28;;;;;;;;;10.25;10.00;;;;;26.32;35.78;101453.38;5075084;28;46455;-81
2021/09/07 00:29:54;;;;;;;;;11.50;10.50;;;;;26.30;35.63;101455.44;5075255;28;46412;-84
2021/09/07 00:35:41;;;;;;;;;10.75;9.75;;;;;26.22;35.97;101450.16;5075080;28;45677;-81
2021/09/07 00:38:06;;;;;;;;;9.50;9.00;;;;;26.23;35.94;101449.16;5075313;28;45553;-80
2021/09/07 00:40:31;;;;;;;;;9.00;9.00;;;;;26.19;36.16;101453.19;5075464;28;45529;-83
2021/09/07 00:42:57;;;;;;;;;10.00;9.00;;;;;26.19;36.05;101451.34;5075271;28;45608;-84
2021/09/07 00:45:23;;;;;;;;;11.25;10.25;;;;;26.18;36.04;101454.25;5075617;28;45484;-84
2021/09/07 00:51:09;;;;;;;;;11.00;10.00;;;;;26.07;36.23;101444.00;5074977;28;46124;-84
2021/09/07 00:53:38;;;;;;;;;11.00;9.00;;;;;26.03;36.41;101435.47;5075322;28;45613;-82
2021/09/07 00:56:04;;;;;;;;;9.75;9.50;;;;;26.01;36.09;101424.09;5075487;28;45520;-85
2021/09/07 00:58:31;;;;;;;;;12.50;10.75;;;;;26.04;36.47;101439.00;5075219;28;46572;-86
2021/09/07 01:00:57;;;;;;;;;10.75;9.75;;;;;25.95;36.13;101422.16;5057236;28;46596;-86
2021/09/07 01:03:22;;;;;;;;;8.75;8.75;;;;;25.98;36.19;101426.31;5074980;28;45609;-85
2021/09/07 01:05:48;;;;;;;;;11.75;11.50;;;;;25.96;36.85;101415.78;5074262;28;45754;-80
2021/09/07 01:08:14;;;;;;;;;10.50;10.00;;;;;25.94;36.75;101414.28;5074953;28;46286;-82
2021/09/07 01:10:40;;;;;;;;;10.50;9.00;;;;;25.95;36.61;101422.16;5074594;28;46074;-84
2021/09/07 01:13:05;;;;;;;;;8.25;8.25;;;;;25.88;36.61;101407.81;5074732;28;45624;-82
2021/09/07 01:15:31;;;;;;;;;11.75;10.00;;;;;25.72;37.00;101379.34;5056680;28;45541;-83
2021/09/07 01:21:31;;;;;;;;;10.75;9.75;;;;;25.78;36.98;101401.94;5075885;28;45922;-80
2021/09/07 01:23:56;;;;;;;;;10.50;10.00;;;;;25.67;36.95;101380.94;5082171;28;45628;-83
2021/09/07 01:26:22;;;;;;;;;8.25;8.25;;;;;25.75;37.28;101403.13;5081960;28;45541;-87
2021/09/07 01:28:48;;;;;;;;;13.00;11.00;;;;;25.72;37.02;101400.84;5060300;28;46508;-87
2021/09/07 01:31:14;;;;;;;;;10.75;9.75;;;;;25.71;37.48;101401.00;5075341;28;45979;-84
2021/09/07 01:33:40;;;;;;;;;10.75;9.00;;;;;25.69;36.96;101400.38;5075554;28;45549;-85
2021/09/07 01:36:06;;;;;;;;;10.50;10.00;;;;;25.66;37.34;101400.75;5075336;28;45637;-84
2021/09/07 01:38:33;;;;;;;;;12.50;11.50;;;;;25.49;37.83;101376.75;5075130;28;46437;-87
2021/09/07 01:41:00;;;;;;;;;13.00;12.00;;;;;25.59;37.32;101395.28;5075294;28;46615;-82
2021/09/07 01:43:25;;;;;;;;;9.50;8.75;;;;;25.57;37.38;101397.34;5075272;28;45826;-87
2021/09/07 01:52:16;;;;;;;;;9.25;8.25;;;;;25.38;37.97;101379.09;5076164;28;45712;-85
2021/09/07 01:54:46;;;;;;;;;10.75;10.25;;;;;25.47;37.52;101391.41;5075977;28;45526;-80
2021/09/07 01:57:12;;;;;;;;;10.00;9.25;;;;;25.45;38.08;101398.81;5059055;28;45787;-84
2021/09/07 01:59:38;;;;;;;;;10.75;8.75;;;;;25.40;38.18;101390.47;5076904;28;45626;-82
2021/09/07 02:02:04;;;;;;;;;10.75;10.25;;;;;25.44;38.06;101400.66;5077063;28;45661;-82
2021/09/07 02:04:31;;;;;;;;;11.00;9.25;;;;;25.43;38.32;101400.84;5075558;28;45696;-82
2021/09/07 02:06:56;;;;;;;;;10.25;10.00;;;;;25.31;38.02;101376.34;5075297;28;45620;-80
2021/09/07 02:09:22;;;;;;;;;11.50;11.00;;;;;25.37;38.46;101394.34;5076823;28;46562;-83
2021/09/07 02:11:48;;;;;;;;;11.25;10.25;;;;;25.36;38.28;101400.75;5077109;28;45604;-81
2021/09/07 02:14:13;;;;;;;;;12.00;11.00;;;;;25.39;38.12;101396.84;5075546;28;45590;-84
2021/09/07 02:16:39;;;;;;;;;11.00;11.00;;;;;25.33;38.38;101390.38;5075567;28;45616;-82
2021/09/07 02:19:04;;;;;;;;;10.00;10.00;;;;;25.37;38.50;101391.66;5078688;28;45694;-84
2021/09/07 02:21:29;;;;;;;;;13.50;11.50;;;;;25.35;38.28;101383.00;5078396;28;45714;-86
2021/09/07 02:23:55;;;;;;;;;10.25;9.75;;;;;25.33;38.47;101386.88;5078667;28;45446;-85
2021/09/07 02:26:20;;;;;;;;;12.75;12.00;;;;;25.35;38.71;101387.53;5060374;28;45997;-87
2021/09/07 02:28:46;;;;;;;;;13.00;11.75;;;;;25.29;38.52;101380.22;5078914;28;46610;-87
2021/09/07 02:31:12;;;;;;;;;10.00;10.00;;;;;25.27;38.69;101382.25;5079248;28;46005;-83
2021/09/07 02:33:37;;;;;;;;;10.50;9.75;;;;;25.30;38.72;101380.03;5079953;28;45517;-86
2021/09/07 02:36:03;;;;;;;;;10.00;9.00;;;;;25.29;38.74;101378.38;5081517;28;45852;-85
2021/09/07 02:38:28;;;;;;;;;10.50;10.25;;;;;25.13;38.90;101350.91;5067219;28;47715;-85
2021/09/07 02:40:58;;;;;;;;;12.25;10.25;;;;;25.25;38.92;101377.09;5089571;28;46111;-85
2021/09/07 02:43:25;;;;;;;;;11.75;11.00;;;;;25.18;38.75;101364.59;5090097;28;45313;-83
2021/09/07 02:45:52;;;;;;;;;11.00;10.00;;;;;24.97;38.89;101334.00;5087126;28;45536;-86
2021/09/07 02:51:39;;;;;;;;;8.75;7.25;;;;;24.98;39.13;101334.81;5083891;28;45814;-83
2021/09/07 02:54:05;;;;;;;;;13.75;11.75;;;;;24.93;39.30;101332.69;5064492;28;46004;-86
2021/09/07 02:56:31;;;;;;;;;12.50;11.50;;;;;25.07;39.51;101358.69;5080055;28;45507;-83
2021/09/07 02:58:56;;;;;;;;;13.00;12.00;;;;;25.03;39.61;101352.03;5076646;28;46365;-82
2021/09/07 03:01:22;;;;;;;;;12.50;10.25;;;;;24.97;39.34;101339.34;5076816;28;46266;-86
2021/09/07 03:03:47;;;;;;;;;11.25;10.25;;;;;25.02;39.30;101355.72;5076614;28;45750;-85
2021/09/07 03:06:13;;;;;;;;;10.50;10.00;;;;;25.00;39.57;101354.22;5077832;28;45743;-80
2021/09/07 03:08:38;;;;;;;;;14.25;12.00;;;;;24.96;39.61;101347.56;5076727;28;45631;-80
2021/09/07 03:11:04;;;;;;;;;11.75;10.75;;;;;24.87;39.68;101341.44;5076690;28;45585;-79
2021/09/07 03:13:30;;;;;;;;;12.00;11.50;;;;;24.82;39.50;101329.59;5076512;28;45523;-80
2021/09/07 03:15:55;;;;;;;;;12.25;11.25;;;;;24.89;39.98;101357.34;5076523;28;45656;-82
2021/09/07 03:21:42;;;;;;;;;13.00;12.25;;;;;24.81;39.72;101347.53;5075027;28;46630;-83
2021/09/07 03:24:08;;;;;;;;;12.00;11.00;;;;;24.78;40.07;101347.09;5076659;28;45618;-83
2021/09/07 03:26:33;;;;;;;;;11.00;9.75;;;;;24.63;39.89;101313.03;5076644;28;45594;-84
2021/09/07 03:28:59;;;;;;;;;11.75;11.75;;;;;24.70;40.21;101331.06;5075219;28;45501;-82
2021/09/07 03:31:24;;;;;;;;;11.00;9.75;;;;;24.72;39.89;101329.88;5076371;28;45922;-83
2021/09/07 03:37:11;;;;;;;;;12.00;10.25;;;;;24.59;40.11;101321.63;5076554;28;45547;-85
2021/09/07 03:39:36;;;;;;;;;12.00;11.00;;;;;24.63;40.59;101339.84;5057655;28;48452;-81
2021/09/07 03:42:02;;;;;;;;;13.25;12.75;;;;;24.46;40.54;101305.34;5076622;28;45607;-83
2021/09/07 03:44:27;;;;;;;;;12.75;12.00;;;;;24.58;40.55;101339.56;5076524;28;45596;-82
2021/09/07 03:46:53;;;;;;;;;13.50;12.75;;;;;24.50;40.60;101326.25;5076510;28;45749;-85
2021/09/07 03:49:19;;;;;;;;;10.75;10.25;;;;;24.55;40.43;101336.41;5077002;28;46570;-84
2021/09/07 03:51:45;;;;;;;;;11.75;11.75;;;;;24.52;40.34;101340.28;5076792;28;46214;-85
2021/09/07 03:54:10;;;;;;;;;13.75;12.00;;;;;24.50;40.49;101328.94;5064327;28;45675;-83
2021/09/07 03:56:36;;;;;;;;;14.00;13.00;;;;;24.48;40.72;101339.00;5084654;28;45648;-83
2021/09/07 03:59:03;;;;;;;;;11.50;10.00;;;;;24.41;40.76;101324.66;5082405;28;46541;-82
2021/09/07 04:01:28;;;;;;;;;12.75;12.00;;;;;24.37;40.66;101311.78;5079255;28;46273;-86
2021/09/07 04:07:15;;;;;;;;;10.75;10.75;;;;;24.42;40.98;101322.81;5080072;28;45709;-81
2021/09/07 04:09:40;;;;;;;;;12.00;12.00;;;;;24.38;41.02;101324.19;5062420;28;48870;-79
2021/09/07 04:12:06;;;;;;;;;11.75;11.50;;;;;24.39;41.27;101317.81;5080673;28;45599;-82
2021/09/07 04:14:32;;;;;;;;;13.00;12.00;;;;;24.36;41.61;101321.69;5081914;28;45717;-80
2021/09/07 04:16:58;;;;;;;;;11.00;11.00;;;;;24.31;41.15;101326.75;5076277;28;45746;-81
2021/09/07 04:19:23;;;;;;;;;12.75;11.00;;;;;24.34;41.78;101322.88;5057349;28;46598;-86
2021/09/07 04:21:49;;;;;;;;;13.25;12.25;;;;;24.32;41.81;101333.78;5075351;28;46385;-78
2021/09/07 04:24:14;;;;;;;;;11.00;11.00;;;;;24.30;41.36;101335.78;5075366;28;45757;-81
2021/09/07 04:26:39;;;;;;;;;15.00;13.25;;;;;24.29;41.80;101344.03;5075746;28;45777;-81
2021/09/07 04:29:05;;;;;;;;;14.25;12.25;;;;;24.24;41.80;101340.03;5075309;28;46415;-82
2021/09/07 04:31:31;;;;;;;;;15.00;13.50;;;;;24.14;42.15;101328.69;5075300;28;45960;-84
2021/09/07 04:37:18;;;;;;;;;14.50;12.25;;;;;24.11;41.99;101346.97;5080043;28;45591;-80
2021/09/07 04:39:49;;;;;;;;;13.50;12.50;;;;;24.18;42.23;101354.13;5080750;28;46857;-84
2021/09/07 04:42:15;;;;;;;;;14.25;12.50;;;;;24.18;42.18;101356.00;5085523;28;46212;-83
2021/09/07 04:44:40;;;;;;;;;11.50;11.50;;;;;24.18;42.31;101362.16;5084455;28;45805;-83
2021/09/07 04:47:05;;;;;;;;;11.00;11.00;;;;;23.98;41.92;101334.19;5077375;28;45646;-80
2021/09/07 04:52:53;;;;;;;;;12.75;10.75;;;;;24.03;42.48;101347.03;5076329;28;45934;-85
2021/09/07 04:55:18;;;;;;;;;12.75;12.00;;;;;24.06;42.38;101349.34;5075848;28;45613;-87
2021/09/07 04:57:43;;;;;;;;;12.00;11.00;;;;;24.02;42.10;101348.84;5075680;28;45993;-80
2021/09/07 05:00:10;;;;;;;;;13.00;12.00;;;;;24.01;42.35;101344.53;5074934;28;45583;-83
2021/09/07 05:02:36;;;;;;;;;15.00;14.00;;;;;24.08;42.50;101360.72;5075089;28;46080;-84
2021/09/07 05:05:08;;;;;;;;;13.25;12.00;;;;;23.98;42.16;101336.00;5075109;28;45780;-80
2021/09/07 05:07:34;;;;;;;;;14.00;12.75;;;;;23.99;42.67;101343.88;5075242;28;45531;-82
2021/09/07 05:10:00;;;;;;;;;14.25;12.50;;;;;24.06;42.36;101360.06;5075423;28;45615;-81
2021/09/07 05:12:27;;;;;;;;;14.75;14.25;;;;;23.88;42.43;101340.78;5076376;28;46032;-82
2021/09/07 05:14:53;;;;;;;;;13.50;13.25;;;;;23.98;42.76;101362.78;5077870;28;45387;-83
2021/09/07 05:17:19;;;;;;;;;15.25;15.00;;;;;23.94;42.76;101369.50;5077052;28;45685;-80
2021/09/07 05:23:06;;;;;;;;;16.00;15.00;;;;;23.78;43.16;101357.06;5075915;28;46086;-83
2021/09/07 05:25:31;;;;;;;;;15.25;13.00;;;;;23.78;43.47;101357.06;5079280;28;45580;-83
2021/09/07 05:27:57;;;;;;;;;15.50;14.50;;;;;23.77;42.81;101358.06;5079294;28;45673;-83
2021/09/07 05:30:24;;;;;;;;;13.75;13.75;;;;;23.76;43.61;101359.91;5080707;28;47488;-85
2021/09/07 05:32:49;;;;;;;;;17.50;15.75;;;;;23.75;43.48;101368.94;5081241;28;45961;-84
2021/09/07 05:35:15;;;;;;;;;16.25;13.00;;;;;23.69;43.44;101364.31;5081542;28;45595;-84
2021/09/07 05:37:41;;;;;;;;;14.00;13.50;;;;;23.75;43.63;101370.81;5080991;28;45354;-79
2021/09/07 05:40:12;;;;;;;;;12.00;11.25;;;;;23.74;43.65;101387.88;5081642;28;45483;-80
2021/09/07 05:42:42;;;;;;;;;14.25;13.00;;;;;23.72;43.18;101372.00;5080936;28;46161;-83
2021/09/07 05:45:09;;;;;;;;;15.25;13.00;;;;;23.72;43.48;101381.84;5079810;28;45733;-81
2021/09/07 05:47:34;;;;;;;;;13.75;13.75;;;;;23.64;43.71;101360.50;5078007;28;45693;-79
2021/09/07 05:53:21;;;;;;;;;14.50;13.50;;;;;23.66;43.52;101374.53;5087676;28;45344;-78
2021/09/07 05:55:46;;;;;;;;;18.50;16.25;;;;;23.66;43.48;101375.38;5095496;28;45454;-78
2021/09/07 05:58:12;;;;;;;;;16.25;13.75;;;;;23.67;44.26;101378.88;5091303;28;45512;-79
2021/09/07 06:00:37;;;;;;;;;16.25;14.75;;;;;23.64;44.02;101368.53;5094017;28;46533;-78
2021/09/07 06:03:08;;;;;;;;;20.75;19.00;;;;;23.64;43.75;101380.06;5096019;28;45562;-78
2021/09/07 06:05:33;;;;;;;;;18.00;17.25;;;;;23.59;44.08;101366.34;5101307;28;45644;-80
2021/09/07 06:07:59;;;;;;;;;18.75;18.00;;;;;23.59;44.66;101370.91;5102565;28;45325;-80
2021/09/07 06:10:24;;;;;;;;;19.75;18.00;;;;;23.58;44.72;101374.59;5101740;28;45702;-80
2021/09/07 06:12:50;;;;;;;;;16.75;15.75;;;;;23.56;44.73;101376.59;5099346;28;45533;-79
2021/09/07 06:15:15;;;;;;;;;16.00;16.00;;;;;23.54;44.83;101379.44;5102492;27;45554;-79
2021/09/07 06:17:40;;;;;;;;;18.75;16.50;;;;;23.52;44.88;101370.75;5101522;28;45537;-80
2021/09/07 06:23:27;;;;;;;;;15.25;15.00;;;;;23.44;44.78;101363.56;5079538;28;45754;-79
2021/09/07 06:25:53;;;;;;;;;14.00;13.50;;;;;23.51;44.09;101370.94;5079490;28;45684;-78
2021/09/07 06:28:19;;;;;;;;;19.00;16.25;;;;;23.52;44.72;101376.13;5079963;28;45552;-78
2021/09/07 06:30:44;;;;;;;;;17.25;17.25;;;;;23.53;44.16;101375.13;5079575;28;46180;-78
2021/09/07 06:33:10;;;;;;;;;14.00;13.50;;;;;23.54;44.65;101376.75;5079070;28;45938;-80
2021/09/07 06:35:35;;;;;;;;;14.00;12.00;;;;;23.55;44.13;101382.94;5078974;28;45636;-80
2021/09/07 06:38:01;;;;;;;;;15.25;13.50;;;;;23.53;44.62;101377.78;5078985;28;45828;-84
2021/09/07 06:40:26;;;;;;;;;14.50;13.00;;;;;23.36;44.52;101346.72;5078613;28;45517;-78
2021/09/07 06:42:52;;;;;;;;;15.50;15.50;;;;;23.60;43.95;101375.22;5079123;28;45561;-76
2021/09/07 06:45:17;;;;;;;;;15.75;14.25;;;;;23.57;43.79;101371.06;5078971;28;45566;-79
2021/09/07 06:47:42;;;;;;;;;16.50;12.75;;;;;23.61;43.89;101387.59;5080015;28;45781;-77
2021/09/07 06:53:30;;;;;;;;;15.75;15.50;;;;;23.61;43.99;101383.09;5079487;28;45526;-78
2021/09/07 06:55:56;;;;;;;;;21.25;19.00;;;;;23.58;44.50;101380.78;5078511;28;45505;-78
2021/09/07 06:58:22;;;;;;;;;18.25;18.25;;;;;23.63;44.85;101386.44;5077795;28;45554;-84
2021/09/07 07:00:48;;;;;;;;;20.25;19.75;;;;;23.60;44.14;101370.72;5058873;28;46486;-81
2021/09/07 07:03:14;;;;;;;;;20.50;18.75;;;;;23.59;44.31;101376.25;5076897;28;45389;-82
2021/09/07 07:05:39;;;;;;;;;20.00;17.75;;;;;23.67;43.86;101390.41;5076706;28;45518;-81
2021/09/07 07:08:04;;;;;;;;;19.50;17.00;;;;;23.69;44.36;101404.47;5078233;28;45944;-82
2021/09/07 07:10:30;;;;;;;;;17.00;14.00;;;;;23.69;43.96;101391.09;5078552;28;46175;-79
2021/09/07 07:12:55;;;;;;;;;14.00;13.25;;;;;23.69;43.78;101393.75;5077613;28;45684;-79
2021/09/07 07:15:21;;;;;;;;;16.75;16.75;;;;;23.70;43.83;101391.91;5076871;28;45592;-78
2021/09/07 07:17:46;;;;;;;;;17.00;16.50;;;;;23.74;44.05;101393.22;5077055;28;45878;-78
2021/09/07 07:23:33;;;;;;;;;17.25;16.00;;;;;23.75;44.12;101394.91;5076351;28;45849;-77
2021/09/07 07:25:58;;;;;;;;;17.75;16.75;;;;;23.82;43.89;101403.88;5076351;28;46073;-77
2021/09/07 07:28:24;;;;;;;;;16.25;14.50;;;;;23.82;44.17;101404.72;5076965;28;45464;-77
2021/09/07 07:30:49;;;;;;;;;15.00;13.75;;;;;23.84;43.58;101396.53;5076507;28;47561;-80
2021/09/07 07:33:14;;;;;;;;;18.00;16.50;;;;;23.84;43.62;101401.88;5075703;28;46111;-78
2021/09/07 07:39:03;;;;;;;;;15.50;14.75;;;;;23.87;43.45;101398.00;5077067;28;45584;-82
2021/09/07 07:41:30;;;;;;;;;14.75;13.25;;;;;23.84;43.48;101391.16;5077079;28;45532;-83
2021/09/07 07:43:56;;;;;;;;;15.25;14.00;;;;;23.88;43.39;101399.66;5076387;28;46731;-81
2021/09/07 07:46:21;;;;;;;;;14.25;14.00;;;;;23.90;43.95;101400.34;5076548;28;45678;-83
2021/09/07 07:48:47;;;;;;;;;14.25;13.75;;;;;23.92;43.39;101399.13;5076667;28;45682;-81
2021/09/07 07:51:13;;;;;;;;;17.25;13.75;;;;;23.95;43.47;101406.84;5076440;28;46811;-81
2021/09/07 07:53:40;;;;;;;;;14.25;13.25;;;;;23.97;43.33;101401.31;5076539;28;46527;-81
2021/09/07 07:56:06;;;;;;;;;13.25;13.25;;;;;23.95;43.61;101397.97;5076734;28;45654;-81
2021/09/07 07:58:32;;;;;;;;;15.00;13.50;;;;;24.02;43.24;101406.97;5077313;28;45513;-80
2021/09/07 08:00:58;;;;;;;;;13.50;11.25;;;;;24.00;43.09;101403.63;5078414;28;45443;-80
2021/09/07 08:03:24;;;;;;;;;14.00;13.75;;;;;24.05;43.19;101404.75;5061077;28;46040;-78
2021/09/07 08:09:12;;;;;;;;;15.25;14.25;;;;;24.11;42.71;101412.09;5079639;28;45564;-81
2021/09/07 08:11:38;;;;;;;;;18.00;16.00;;;;;24.15;42.68;101412.56;5078041;28;47381;-81
2021/09/07 08:14:05;;;;;;;;;17.50;16.00;;;;;24.17;42.79;101406.06;5077872;28;45994;-81
2021/09/07 08:16:31;;;;;;;;;12.75;12.00;;;;;24.19;42.37;101414.72;5078722;28;45618;-84
2021/09/07 08:18:56;;;;;;;;;16.75;16.25;;;;;24.23;43.13;101412.53;5080824;28;45579;-79
2021/09/07 08:21:22;;;;;;;;;15.00;13.25;;;;;24.24;42.81;101400.78;5079078;28;45543;-79
2021/09/07 08:23:48;;;;;;;;;15.75;14.50;;;;;24.30;42.76;101408.13;5076244;28;46180;-79
2021/09/07 08:26:13;;;;;;;;;14.50;13.75;;;;;24.34;42.40;101409.44;5075524;28;46077;-80
2021/09/07 08:28:38;;;;;;;;;16.00;14.75;;;;;24.37;42.61;101409.06;5075947;28;45620;-79
2021/09/07 08:31:04;;;;;;;;;13.25;12.00;;;;;24.41;42.33;101409.53;5075653;28;46292;-78
2021/09/07 08:33:29;;;;;;;;;15.50;14.00;;;;;24.43;42.04;101411.03;5074724;28;46986;-79
2021/09/07 08:39:16;;;;;;;;;13.25;12.50;;;;;24.52;42.23;101404.59;5075432;28;45699;-77
2021/09/07 08:41:42;;;;;;;;;16.00;14.50;;;;;24.49;42.10;101398.78;5075343;28;46740;-77
2021/09/07 08:44:09;;;;;;;;;17.00;15.50;;;;;24.54;42.04;101399.91;5075294;28;46183;-77
2021/09/07 08:46:35;;;;;;;;;15.75;14.00;;;;;24.61;42.07;101410.75;5075158;28;45708;-77
2021/09/07 08:49:00;;;;;;;;;15.25;14.50;;;;;24.65;42.24;101401.31;5075193;28;45557;-77
2021/09/07 08:51:26;;;;;;;;;16.25;15.25;;;;;24.67;42.11;101410.81;5075059;28;46465;-78
2021/09/07 08:53:53;;;;;;;;;13.00;12.50;;;;;24.68;41.74;101401.78;5074750;28;46164;-79
2021/09/07 08:56:19;;;;;;;;;14.50;14.25;;;;;24.76;41.86;101410.75;5074988;28;45734;-75
2021/09/07 08:58:44;;;;;;;;;14.00;12.50;;;;;24.79;41.98;101403.19;5074848;28;45592;-79
2021/09/07 09:01:15;;;;;;;;;16.00;14.25;;;;;24.76;41.48;101400.88;5075010;28;45464;-79
2021/09/07 09:09:52;;;;;;;;;14.25;14.00;;;;;24.95;41.61;101407.56;5074655;28;45543;-77
2021/09/07 09:12:29;;;;;;;;;13.50;12.50;;;;;24.98;41.63;101409.91;5074643;28;46572;-79
2021/09/07 09:14:54;;;;;;;;;14.75;12.25;;;;;25.02;41.64;101413.88;5074835;28;46171;-78
2021/09/07 09:17:21;;;;;;;;;18.00;12.50;;;;;25.06;41.30;101418.69;5074768;28;45666;-77
2021/09/07 09:19:55;;;;;;;;;15.50;13.50;;;;;25.06;41.19;101413.31;5074976;28;45680;-78
2021/09/07 09:22:39;;;;;;;;;16.25;14.75;;;;;25.17;41.01;101424.63;5073859;28;46596;-77
2021/09/07 09:25:26;;;;;;;;;18.75;17.00;;;;;25.19;40.85;101414.53;5074472;28;47246;-75
2021/09/07 09:28:08;;;;;;;;;14.25;14.00;;;;;25.28;40.97;101429.53;5073699;28;45580;-76
2021/09/07 09:30:48;;;;;;;;;18.50;17.50;;;;;25.34;40.85;101423.41;5074827;28;45708;-78
2021/09/07 09:33:17;;;;;;;;;13.25;12.50;;;;;25.38;40.93;101424.72;5074247;28;46446;-77
2021/09/07 09:35:58;;;;;;;;;14.50;14.25;;;;;25.43;41.03;101412.41;5073709;28;46301;-79
2021/09/07 09:38:32;;;;;;;;;15.75;14.75;;;;;25.48;40.69;101411.84;5074389;28;45684;-79
2021/09/07 09:41:00;;;;;;;;;11.75;11.50;;;;;25.53;40.72;101417.50;5074402;28;45637;-80
2021/09/07 09:43:30;;;;;;;;;14.50;12.00;;;;;25.56;40.78;101411.78;5074374;28;46456;-79
2021/09/07 09:45:56;;;;;;;;;14.50;12.25;;;;;25.64;40.83;101411.66;5074742;28;46080;-78
2021/09/07 09:48:22;;;;;;;;;15.50;13.75;;;;;25.70;40.72;101404.72;5077061;28;45657;-76
2021/09/07 09:50:50;;;;;;;;;19.25;16.75;;;;;25.76;40.49;101396.75;5076320;28;45588;-79
2021/09/07 09:53:19;;;;;;;;;14.50;13.50;;;;;25.80;40.64;101392.66;5075021;28;45630;-78
2021/09/07 09:55:45;;;;;;;;;18.25;16.00;;;;;25.81;40.49;101391.63;5074126;28;45667;-80
2021/09/07 09:58:11;;;;;;;;;12.25;12.25;;;;;25.86;40.20;101383.84;5073598;28;45596;-79
2021/09/07 10:00:37;;;;;;;;;15.25;14.00;;;;;25.92;40.29;101385.78;5074357;28;45736;-77
2021/09/07 10:03:09;;;;;;;;;15.00;14.25;;;;;25.95;39.75;101384.56;5055348;28;47649;-78
2021/09/07 10:05:35;;;;;;;;;11.75;11.25;;;;;26.01;39.59;101375.75;5073424;28;45835;-76
2021/09/07 10:08:00;;;;;;;;;13.00;12.50;;;;;26.03;39.50;101381.75;5073647;28;45597;-76
2021/09/07 10:10:26;;;;;;;;;12.75;11.50;;;;;25.99;39.42;101352.78;5074085;28;45573;-75
2021/09/07 10:12:56;;;;;;;;;11.50;11.50;;;;;26.08;39.57;101357.81;5073751;28;47596;-79
2021/09/07 10:15:40;;;;;;;;;12.50;11.50;;;;;26.17;38.83;101362.06;5073307;28;46155;-79
2021/09/07 10:23:49;;;;;;;;;12.00;11.50;;;;;26.36;38.67;101360.59;5073432;28;45592;-77
2021/09/07 10:26:14;;;;;;;;;13.75;11.50;;;;;26.42;38.91;101357.13;5073475;28;46424;-78
2021/09/07 10:28:44;;;;;;;;;13.00;12.00;;;;;26.45;38.77;101348.69;5055019;28;45548;-76
2021/09/07 10:31:21;;;;;;;;;11.50;10.25;;;;;26.51;39.06;101350.59;5074240;28;45615;-79
2021/09/07 10:34:04;;;;;;;;;10.75;10.75;;;;;26.56;38.30;101341.97;5073529;28;46292;-77
2021/09/07 10:36:37;;;;;;;;;13.25;12.50;;;;;26.62;38.60;101335.78;5073903;28;45649;-78
2021/09/07 10:39:05;;;;;;;;;13.00;11.25;;;;;26.68;38.00;101343.06;5076077;28;45733;-77
2021/09/07 10:41:33;;;;;;;;;11.75;11.75;;;;;26.72;38.48;101329.03;5077751;28;45654;-77
2021/09/07 10:44:03;;;;;;;;;13.25;12.25;;;;;26.71;38.15;101318.50;5077240;28;46337;-79
2021/09/07 10:46:53;;;;;;;;;13.50;12.00;;;;;26.82;38.02;101331.38;5076877;28;45853;-78
2021/09/07 10:52:40;;;;;;;;;11.00;10.75;;;;;26.87;37.63;101310.13;5076622;28;45643;-78
2021/09/07 10:55:12;;;;;;;;;13.25;13.00;;;;;26.95;37.90;101312.66;5076679;28;45762;-77
2021/09/07 10:57:43;;;;;;;;;12.50;12.25;;;;;26.98;37.67;101314.97;5076807;28;45923;-77
2021/09/07 11:00:10;;;;;;;;;11.75;11.00;;;;;27.03;37.63;101295.53;5077265;28;45595;-79
2021/09/07 11:02:42;;;;;;;;;13.00;12.00;;;;;27.09;37.37;101300.13;5077438;28;45780;-79
2021/09/07 11:08:31;;;;;;;;;12.00;12.00;;;;;27.21;37.12;101284.22;5076697;28;45707;-79
2021/09/07 11:10:57;;;;;;;;;12.75;12.00;;;;;27.25;37.03;101282.78;5076829;28;45627;-78
2021/09/07 11:13:30;;;;;;;;;10.75;10.25;;;;;27.29;36.57;101279.47;5077582;28;45524;-78
2021/09/07 11:16:01;;;;;;;;;11.50;11.00;;;;;27.34;36.67;101277.00;5076761;28;45662;-79
2021/09/07 11:18:31;;;;;;;;;11.75;11.75;;;;;27.40;36.58;101262.75;5058571;28;46040;-78
2021/09/07 11:24:19;;;;;;;;;12.00;11.00;;;;;27.49;36.37;101263.38;5075273;28;45692;-79
2021/09/07 11:26:46;;;;;;;;;10.00;9.75;;;;;27.45;36.66;101244.13;5076544;28;46373;-79
2021/09/07 11:29:12;;;;;;;;;11.00;10.50;;;;;27.53;36.96;101249.34;5076535;28;46158;-79
2021/09/07 11:31:37;;;;;;;;;12.75;12.50;;;;;27.64;36.06;101258.66;5076398;28;45532;-80
2021/09/07 11:34:14;;;;;;;;;13.50;12.25;;;;;27.69;36.04;101260.78;5076696;28;45453;-83
2021/09/07 11:40:12;;;;;;;;;14.50;12.50;;;;;27.73;36.67;101251.25;5081838;28;45569;-84
2021/09/07 11:42:47;;;;;;;;;13.25;12.75;;;;;27.82;36.75;101234.66;5058603;28;45645;-82
2021/09/07 11:45:26;;;;;;;;;13.50;13.00;;;;;27.73;36.06;101222.44;5076957;28;45671;-81
2021/09/07 11:47:53;;;;;;;;;14.00;12.00;;;;;27.88;35.90;101241.94;5057722;28;46591;-84
2021/09/07 11:50:25;;;;;;;;;13.75;12.50;;;;;27.92;36.14;101229.69;5075334;28;47043;-82
2021/09/07 11:52:52;;;;;;;;;13.25;10.50;;;;;27.88;35.74;101227.63;5076804;28;45596;-80
2021/09/07 11:55:44;;;;;;;;;13.75;11.50;;;;;27.96;35.60;101238.22;5076527;28;45710;-84
2021/09/07 11:58:23;;;;;;;;;11.25;10.50;;;;;27.99;35.09;101232.41;5076287;28;45779;-82
2021/09/07 12:01:09;;;;;;;;;13.00;12.00;;;;;28.02;35.29;101229.28;5076917;28;46047;-82
2021/09/07 12:03:55;;;;;;;;;13.75;13.75;;;;;28.05;35.08;101228.03;5078333;28;45685;-83
2021/09/07 12:06:31;;;;;;;;;13.00;12.00;;;;;28.01;34.66;101219.56;5078830;28;45591;-83
2021/09/07 12:09:07;;;;;;;;;11.50;11.00;;;;;28.07;34.48;101217.91;5077937;28;46590;-82
2021/09/07 12:11:33;;;;;;;;;13.00;12.25;;;;;28.13;34.32;101222.44;5076282;28;46185;-79
2021/09/07 12:14:07;;;;;;;;;10.75;10.75;;;;;28.06;34.51;101198.19;5076384;28;45458;-82
2021/09/07 12:16:38;;;;;;;;;16.50;14.25;;;;;28.21;34.49;101206.09;5076558;28;45493;-82
2021/09/07 12:19:47;;;;;;;;;13.25;12.50;;;;;28.24;34.22;101201.09;5076889;28;46436;-87
2021/09/07 12:22:23;;;;;;;;;16.75;14.50;;;;;28.23;34.23;101194.03;5033545;28;46496;-84
2021/09/07 12:25:08;;;;;;;;;11.00;9.75;;;;;28.29;33.84;101201.28;5033219;28;45671;-84
2021/09/07 12:27:54;;;;;;;;;11.00;11.00;;;;;28.18;33.59;101174.97;5033662;28;45706;-83
2021/09/07 12:30:28;;;;;;;;;13.00;11.00;;;;;28.36;33.64;101196.72;5033585;28;46673;-84
2021/09/07 12:33:09;;;;;;;;;10.50;10.00;;;;;28.37;33.76;101175.97;5034475;28;45969;-81
2021/09/07 12:38:56;;;;;;;;;13.00;12.25;;;;;28.37;32.69;101160.63;5035098;28;45702;-83
2021/09/07 12:41:21;;;;;;;;;9.50;9.25;;;;;28.49;32.20;101176.16;5034561;28;45684;-82
2021/09/07 12:43:50;;;;;;;;;13.00;12.00;;;;;28.50;32.52;101173.25;5033388;28;45972;-82
2021/09/07 12:46:18;;;;;;;;;10.75;10.75;;;;;28.52;32.62;101170.31;5033330;28;45641;-80